PWSweather.com
Personal Weather Stations
Station Observations
KWABLAIN13
Ptl Weather, Blaine, WA

Ptl WeatherBlaine, WA

Lat: 48.997393, Lon: -122.748614

Elevation: 57

Station Type: Davis Advantage Pro 2

http://www.ptlnet.net

Latest ConditionsUpdated 11:50:03 AM PDT Saturday, Mar 28, 2015
Currently Today's Max Today's Min Today's Average
Temperature 56.5°F13.6°C 56.5°F13.6°C 49.4°F9.7°C 51.2°F10.7°C
Dew Point 46.5°F8.1°C 48.6°F9.2°C 45.3°F7.4°C 46.5°F8.1°C
Winds 10.0 mph S16.1 kmh S 25.0 mph SSW40.2 kmh SSW - 8.0 mph 12.9 kmh
Wind Gusts 11.0 mph17.7 kmh 26.0 mph41.8 kmh - -
Humidity 69% 90% 69% 84%
Pressure 30.26 in1024.7 mb 30.26 in1024.7 mb 29.92 in1013.2 mb -
Hour Temp Dew Point Humidity Winds Wind Gusts Pressure Precip Precip Rate Daily Precip Total
11:50 AM 56.5°F13.6°C 46.5°F8.1°C 69% 10.0 mph S16.1 kmh S 11.0 mph17.7 kmh 30.26 in1024.7 mb 0.00 in0.0 mm 0.00 in0.0 mm 0.00 in0.0 mm
11:45 AM 56.4°F13.6°C 46.4°F8.0°C 69% 5.0 mph S8.0 kmh S 11.0 mph17.7 kmh 30.26 in1024.7 mb 0.00 in0.0 mm 0.00 in0.0 mm 0.00 in0.0 mm
11:29 AM 56.3°F13.5°C 46.3°F7.9°C 69% 8.0 mph S12.9 kmh S 12.0 mph19.3 kmh 30.25 in1024.4 mb 0.00 in0.0 mm 0.00 in0.0 mm 0.00 in0.0 mm
11:25 AM 56.3°F13.5°C 47.0°F8.3°C 71% 7.0 mph SSW11.3 kmh SSW 12.0 mph19.3 kmh 30.25 in1024.4 mb 0.00 in0.0 mm 0.00 in0.0 mm 0.00 in0.0 mm
11:10 AM 56.1°F13.4°C 46.5°F8.1°C 70% 7.0 mph SSW11.3 kmh SSW 7.0 mph11.3 kmh 30.24 in1024.0 mb 0.00 in0.0 mm 0.00 in0.0 mm 0.00 in0.0 mm
11:04 AM 56.1°F13.4°C 46.8°F8.2°C 71% 5.0 mph SSW8.0 kmh SSW 10.0 mph16.1 kmh 30.24 in1024.0 mb 0.00 in0.0 mm 0.00 in0.0 mm 0.00 in0.0 mm
10:49 AM 55.3°F12.9°C 46.8°F8.2°C 73% 6.0 mph SW9.7 kmh SW 10.0 mph16.1 kmh 30.23 in1023.7 mb 0.00 in0.0 mm 0.00 in0.0 mm 0.00 in0.0 mm
10:45 AM 54.9°F12.7°C 47.5°F8.6°C 76% 7.0 mph SW11.3 kmh SW 8.0 mph12.9 kmh 30.22 in1023.4 mb 0.00 in0.0 mm 0.00 in0.0 mm 0.00 in0.0 mm
10:30 AM 54.1°F12.3°C 46.7°F8.2°C 76% 6.0 mph SW9.7 kmh SW 8.0 mph12.9 kmh 30.22 in1023.4 mb 0.00 in0.0 mm 0.00 in0.0 mm 0.00 in0.0 mm
10:25 AM 54.0°F12.2°C 47.6°F8.7°C 79% 6.0 mph SSW9.7 kmh SSW 7.0 mph11.3 kmh 30.22 in1023.4 mb 0.00 in0.0 mm 0.00 in0.0 mm 0.00 in0.0 mm
10:09 AM 53.3°F11.8°C 47.0°F8.3°C 79% 5.0 mph SW8.0 kmh SW 7.0 mph11.3 kmh 30.21 in1023.0 mb 0.00 in0.0 mm 0.00 in0.0 mm 0.00 in0.0 mm
10:05 AM 52.9°F11.6°C 47.6°F8.7°C 82% 5.0 mph WSW8.0 kmh WSW 7.0 mph11.3 kmh 30.21 in1023.0 mb 0.00 in0.0 mm 0.00 in0.0 mm 0.00 in0.0 mm
09:50 AM 52.3°F11.3°C 47.0°F8.3°C 82% 6.0 mph S9.7 kmh S 8.0 mph12.9 kmh 30.21 in1023.0 mb 0.00 in0.0 mm 0.00 in0.0 mm 0.00 in0.0 mm
09:45 AM 52.1°F11.2°C 46.8°F8.2°C 82% 6.0 mph SW9.7 kmh SW 8.0 mph12.9 kmh 30.20 in1022.7 mb 0.00 in0.0 mm 0.00 in0.0 mm 0.00 in0.0 mm
09:29 AM 51.4°F10.8°C 46.7°F8.2°C 84% 6.0 mph SW9.7 kmh SW 10.0 mph16.1 kmh 30.19 in1022.4 mb 0.00 in0.0 mm 0.00 in0.0 mm 0.00 in0.0 mm
09:25 AM 51.3°F10.7°C 47.0°F8.3°C 85% 5.0 mph SSW8.0 kmh SSW 9.0 mph14.5 kmh 30.19 in1022.4 mb 0.00 in0.0 mm 0.00 in0.0 mm 0.00 in0.0 mm
09:10 AM 50.7°F10.4°C 46.7°F8.2°C 86% 9.0 mph SW14.5 kmh SW 9.0 mph14.5 kmh 30.18 in1022.0 mb 0.00 in0.0 mm 0.00 in0.0 mm 0.00 in0.0 mm
09:05 AM 50.5°F10.3°C 46.2°F7.9°C 85% 4.0 mph SW6.4 kmh SW 10.0 mph16.1 kmh 30.17 in1021.7 mb 0.00 in0.0 mm 0.00 in0.0 mm 0.00 in0.0 mm
08:50 AM 50.4°F10.2°C 46.4°F8.0°C 86% 5.0 mph SW8.0 kmh SW 7.0 mph11.3 kmh 30.17 in1021.7 mb 0.00 in0.0 mm 0.00 in0.0 mm 0.00 in0.0 mm
08:45 AM 50.4°F10.2°C 46.4°F8.0°C 86% 6.0 mph SSW9.7 kmh SSW 12.0 mph19.3 kmh 30.16 in1021.3 mb 0.00 in0.0 mm 0.00 in0.0 mm 0.00 in0.0 mm
08:30 AM 50.4°F10.2°C 46.7°F8.2°C 87% 9.0 mph SSW14.5 kmh SSW 13.0 mph20.9 kmh 30.15 in1021.0 mb 0.00 in0.0 mm 0.00 in0.0 mm 0.00 in0.0 mm
08:24 AM 50.3°F10.2°C 46.6°F8.1°C 87% 9.0 mph SW14.5 kmh SW 12.0 mph19.3 kmh 30.15 in1021.0 mb 0.00 in0.0 mm 0.00 in0.0 mm 0.00 in0.0 mm
08:10 AM 50.0°F10.0°C 46.6°F8.1°C 88% 6.0 mph SSW9.7 kmh SSW 6.0 mph9.7 kmh 30.13 in1020.3 mb 0.00 in0.0 mm 0.00 in0.0 mm 0.00 in0.0 mm
08:05 AM 49.9°F9.9°C 46.2°F7.9°C 87% 8.0 mph SSW12.9 kmh SSW 14.0 mph22.5 kmh 30.12 in1020.0 mb 0.00 in0.0 mm 0.00 in0.0 mm 0.00 in0.0 mm
07:50 AM 49.7°F9.8°C 46.6°F8.1°C 89% 6.0 mph S9.7 kmh S 6.0 mph9.7 kmh 30.11 in1019.6 mb 0.00 in0.0 mm 0.00 in0.0 mm 0.00 in0.0 mm
07:45 AM 49.6°F9.8°C 46.8°F8.2°C 90% 8.0 mph SW12.9 kmh SW 10.0 mph16.1 kmh 30.11 in1019.6 mb 0.00 in0.0 mm 0.00 in0.0 mm 0.00 in0.0 mm
07:29 AM 49.4°F9.7°C 46.6°F8.1°C 90% 4.0 mph SSW6.4 kmh SSW 11.0 mph17.7 kmh 30.10 in1019.3 mb 0.00 in0.0 mm 0.00 in0.0 mm 0.00 in0.0 mm
07:25 AM 49.4°F9.7°C 46.6°F8.1°C 90% 6.0 mph SW9.7 kmh SW 11.0 mph17.7 kmh 30.09 in1019.0 mb 0.00 in0.0 mm 0.00 in0.0 mm 0.00 in0.0 mm
07:10 AM 49.6°F9.8°C 46.8°F8.2°C 90% 5.0 mph SW8.0 kmh SW 12.0 mph19.3 kmh 30.08 in1018.6 mb 0.00 in0.0 mm 0.00 in0.0 mm 0.00 in0.0 mm
07:05 AM 49.7°F9.8°C 46.6°F8.1°C 89% 7.0 mph SW11.3 kmh SW 12.0 mph19.3 kmh 30.08 in1018.6 mb 0.00 in0.0 mm 0.00 in0.0 mm 0.00 in0.0 mm
06:50 AM 50.7°F10.4°C 47.6°F8.7°C 89% 3.0 mph SW4.8 kmh SW 14.0 mph22.5 kmh 30.07 in1018.3 mb 0.00 in0.0 mm 0.00 in0.0 mm 0.00 in0.0 mm
06:45 AM 50.9°F10.5°C 46.9°F8.3°C 86% 6.0 mph W9.7 kmh W 14.0 mph22.5 kmh 30.06 in1017.9 mb 0.00 in0.0 mm 0.00 in0.0 mm 0.00 in0.0 mm
06:29 AM 50.8°F10.4°C 45.8°F7.7°C 83% 8.0 mph SW12.9 kmh SW 14.0 mph22.5 kmh 30.04 in1017.3 mb 0.00 in0.0 mm 0.00 in0.0 mm 0.00 in0.0 mm
06:24 AM 50.6°F10.3°C 45.6°F7.6°C 83% 11.0 mph WSW17.7 kmh WSW 14.0 mph22.5 kmh 30.04 in1017.3 mb 0.00 in0.0 mm 0.00 in0.0 mm 0.00 in0.0 mm
06:10 AM 50.4°F10.2°C 46.1°F7.8°C 85% 8.0 mph SSW12.9 kmh SSW 8.0 mph12.9 kmh 30.03 in1016.9 mb 0.00 in0.0 mm 0.00 in0.0 mm 0.00 in0.0 mm
06:05 AM 50.4°F10.2°C 46.1°F7.8°C 85% 7.0 mph SSW11.3 kmh SSW 12.0 mph19.3 kmh 30.03 in1016.9 mb 0.00 in0.0 mm 0.00 in0.0 mm 0.00 in0.0 mm
05:50 AM 50.2°F10.1°C 45.9°F7.7°C 85% 9.0 mph SW14.5 kmh SW 13.0 mph20.9 kmh 30.02 in1016.6 mb 0.00 in0.0 mm 0.00 in0.0 mm 0.00 in0.0 mm
05:44 AM 50.2°F10.1°C 46.2°F7.9°C 86% 8.0 mph SSW12.9 kmh SSW 15.0 mph24.1 kmh 30.01 in1016.3 mb 0.00 in0.0 mm 0.00 in0.0 mm 0.00 in0.0 mm
05:30 AM 50.0°F10.0°C 46.0°F7.8°C 86% 16.0 mph SSW25.7 kmh SSW 23.0 mph37.0 kmh 30.00 in1015.9 mb 0.00 in0.0 mm 0.00 in0.0 mm 0.00 in0.0 mm
05:25 AM 50.0°F10.0°C 46.0°F7.8°C 86% 11.0 mph SSW17.7 kmh SSW 19.0 mph30.6 kmh 29.99 in1015.6 mb 0.00 in0.0 mm 0.00 in0.0 mm 0.00 in0.0 mm
05:10 AM 50.0°F10.0°C 46.0°F7.8°C 86% 10.0 mph SW16.1 kmh SW 25.0 mph40.2 kmh 29.98 in1015.2 mb 0.00 in0.0 mm 0.00 in0.0 mm 0.00 in0.0 mm
05:05 AM 49.9°F9.9°C 45.6°F7.6°C 85% 25.0 mph SSW40.2 kmh SSW 25.0 mph40.2 kmh 29.97 in1014.9 mb 0.00 in0.0 mm 0.00 in0.0 mm 0.00 in0.0 mm
04:49 AM 49.8°F9.9°C 45.5°F7.5°C 85% 6.0 mph SSW9.7 kmh SSW 23.0 mph37.0 kmh 29.97 in1014.9 mb 0.00 in0.0 mm 0.00 in0.0 mm 0.00 in0.0 mm
04:45 AM 49.8°F9.9°C 45.5°F7.5°C 85% 12.0 mph S19.3 kmh S 23.0 mph37.0 kmh 29.97 in1014.9 mb 0.00 in0.0 mm 0.00 in0.0 mm 0.00 in0.0 mm
04:29 AM 49.6°F9.8°C 45.3°F7.4°C 85% 10.0 mph SW16.1 kmh SW 24.0 mph38.6 kmh 29.96 in1014.6 mb 0.00 in0.0 mm 0.00 in0.0 mm 0.00 in0.0 mm
04:25 AM 49.6°F9.8°C 45.3°F7.4°C 85% 10.0 mph S16.1 kmh S 24.0 mph38.6 kmh 29.96 in1014.6 mb 0.00 in0.0 mm 0.00 in0.0 mm 0.00 in0.0 mm
04:10 AM 49.7°F9.8°C 45.4°F7.4°C 85% 16.0 mph S25.7 kmh S 17.0 mph27.4 kmh 29.95 in1014.2 mb 0.00 in0.0 mm 0.00 in0.0 mm 0.00 in0.0 mm
04:05 AM 49.7°F9.8°C 45.7°F7.6°C 86% 18.0 mph SSW29.0 kmh SSW 26.0 mph41.8 kmh 29.95 in1014.2 mb 0.00 in0.0 mm 0.00 in0.0 mm 0.00 in0.0 mm
03:50 AM 49.6°F9.8°C 45.6°F7.6°C 86% 10.0 mph SSW16.1 kmh SSW 24.0 mph38.6 kmh 29.94 in1013.9 mb 0.00 in0.0 mm 0.00 in0.0 mm 0.00 in0.0 mm
03:45 AM 49.7°F9.8°C 45.7°F7.6°C 86% 17.0 mph SSW27.4 kmh SSW 24.0 mph38.6 kmh 29.94 in1013.9 mb 0.00 in0.0 mm 0.00 in0.0 mm 0.00 in0.0 mm
03:30 AM 49.9°F9.9°C 45.6°F7.6°C 85% 9.0 mph SSW14.5 kmh SSW 24.0 mph38.6 kmh 29.94 in1013.9 mb 0.00 in0.0 mm 0.00 in0.0 mm 0.00 in0.0 mm
03:25 AM 49.9°F9.9°C 45.6°F7.6°C 85% 15.0 mph S24.1 kmh S 24.0 mph38.6 kmh 29.94 in1013.9 mb 0.00 in0.0 mm 0.00 in0.0 mm 0.00 in0.0 mm
03:10 AM 49.9°F9.9°C 45.9°F7.7°C 86% 15.0 mph SSW24.1 kmh SSW 15.0 mph24.1 kmh 29.94 in1013.9 mb 0.00 in0.0 mm 0.00 in0.0 mm 0.00 in0.0 mm
03:05 AM 49.9°F9.9°C 45.9°F7.7°C 86% 4.0 mph S6.4 kmh S 13.0 mph20.9 kmh 29.94 in1013.9 mb 0.00 in0.0 mm 0.00 in0.0 mm 0.00 in0.0 mm
02:50 AM 50.1°F10.1°C 46.1°F7.8°C 86% 4.0 mph S6.4 kmh S 7.0 mph11.3 kmh 29.95 in1014.2 mb 0.00 in0.0 mm 0.00 in0.0 mm 0.00 in0.0 mm
02:45 AM 50.1°F10.1°C 46.1°F7.8°C 86% 5.0 mph SSW8.0 kmh SSW 11.0 mph17.7 kmh 29.96 in1014.6 mb 0.00 in0.0 mm 0.00 in0.0 mm 0.00 in0.0 mm
02:30 AM 50.0°F10.0°C 46.0°F7.8°C 86% 7.0 mph SSE11.3 kmh SSE 15.0 mph24.1 kmh 29.95 in1014.2 mb 0.00 in0.0 mm 0.00 in0.0 mm 0.00 in0.0 mm
02:25 AM 50.1°F10.1°C 46.1°F7.8°C 86% 8.0 mph SSW12.9 kmh SSW 12.0 mph19.3 kmh 29.95 in1014.2 mb 0.00 in0.0 mm 0.00 in0.0 mm 0.00 in0.0 mm
02:10 AM 50.1°F10.1°C 46.1°F7.8°C 86% 8.0 mph SSW12.9 kmh SSW 16.0 mph25.7 kmh 29.96 in1014.6 mb 0.00 in0.0 mm 0.00 in0.0 mm 0.00 in0.0 mm
02:05 AM 50.1°F10.1°C 46.1°F7.8°C 86% 9.0 mph S14.5 kmh S 16.0 mph25.7 kmh 29.96 in1014.6 mb 0.00 in0.0 mm 0.00 in0.0 mm 0.00 in0.0 mm
01:49 AM 50.2°F10.1°C 46.2°F7.9°C 86% 6.0 mph S9.7 kmh S 11.0 mph17.7 kmh 29.95 in1014.2 mb 0.00 in0.0 mm 0.00 in0.0 mm 0.00 in0.0 mm
01:45 AM 50.3°F10.2°C 46.6°F8.1°C 87% 4.0 mph SE6.4 kmh SE 11.0 mph17.7 kmh 29.94 in1013.9 mb 0.00 in0.0 mm 0.00 in0.0 mm 0.00 in0.0 mm
01:29 AM 50.6°F10.3°C 46.9°F8.3°C 87% 6.0 mph SSW9.7 kmh SSW 13.0 mph20.9 kmh 29.94 in1013.9 mb 0.00 in0.0 mm 0.00 in0.0 mm 0.00 in0.0 mm
01:25 AM 50.7°F10.4°C 47.0°F8.3°C 87% 7.0 mph S11.3 kmh S 13.0 mph20.9 kmh 29.94 in1013.9 mb 0.00 in0.0 mm 0.00 in0.0 mm 0.00 in0.0 mm
01:10 AM 51.0°F10.6°C 47.6°F8.7°C 88% 6.0 mph S9.7 kmh S 6.0 mph9.7 kmh 29.93 in1013.5 mb 0.00 in0.0 mm 0.00 in0.0 mm 0.00 in0.0 mm
01:05 AM 51.1°F10.6°C 47.7°F8.7°C 88% 6.0 mph S9.7 kmh S 12.0 mph19.3 kmh 29.93 in1013.5 mb 0.00 in0.0 mm 0.00 in0.0 mm 0.00 in0.0 mm
12:50 AM 51.3°F10.7°C 48.2°F9.0°C 89% 7.0 mph SSE11.3 kmh SSE 13.0 mph20.9 kmh 29.93 in1013.5 mb 0.00 in0.0 mm 0.00 in0.0 mm 0.00 in0.0 mm
12:45 AM 51.3°F10.7°C 48.2°F9.0°C 89% 8.0 mph SSW12.9 kmh SSW 11.0 mph17.7 kmh 29.93 in1013.5 mb 0.00 in0.0 mm 0.00 in0.0 mm 0.00 in0.0 mm
12:30 AM 51.4°F10.8°C 48.3°F9.1°C 89% 7.0 mph SSW11.3 kmh SSW 7.0 mph11.3 kmh 29.92 in1013.2 mb 0.00 in0.0 mm 0.00 in0.0 mm 0.00 in0.0 mm
12:25 AM 51.4°F10.8°C 48.3°F9.1°C 89% 10.0 mph S16.1 kmh S 12.0 mph19.3 kmh 29.92 in1013.2 mb 0.00 in0.0 mm 0.00 in0.0 mm 0.00 in0.0 mm
12:10 AM 51.7°F10.9°C 48.6°F9.2°C 89% 5.0 mph SSW8.0 kmh SSW 13.0 mph20.9 kmh 29.92 in1013.2 mb 0.00 in0.0 mm 0.00 in0.0 mm 0.00 in0.0 mm
12:05 AM 51.7°F10.9°C 48.6°F9.2°C 89% 7.0 mph S11.3 kmh S 13.0 mph20.9 kmh 29.92 in1013.2 mb 0.00 in0.0 mm 0.00 in0.0 mm 0.00 in0.0 mm